Time;durP1;ratioP1;P1;durP2;ratioP2;P2;SDS_P1;SDS_P2;PMS_P1;PMS_P2;Temp;Humidity;BMP_temperature;BMP_pressure;BME280_temperature;BME280_humidity;BME280_pressure;Samples;Min_cycle;Max_cycle;Signal;HPM_P1;HPM_P2
2022/10/30 00:00:37;;;;;;;4.93;2.55;;;18.90;70.10;;;;;;2287023;55;21019;-69
2022/10/30 00:03:04;;;;;;;4.53;2.20;;;18.90;70.20;;;;;;2306619;58;21852;-68
2022/10/30 00:05:30;;;;;;;6.32;2.30;;;18.90;70.40;;;;;;2306348;58;21353;-70
2022/10/30 00:07:58;;;;;;;5.78;2.22;;;18.80;70.30;;;;;;2296848;56;21226;-66
2022/10/30 00:10:24;;;;;;;5.30;2.30;;;18.80;70.30;;;;;;2277257;55;21260;-69
2022/10/30 00:12:50;;;;;;;5.30;2.42;;;18.80;70.30;;;;;;2302372;54;21028;-69
2022/10/30 00:15:17;;;;;;;4.53;2.42;;;18.80;70.20;;;;;;2285680;55;21312;-69
2022/10/30 00:17:43;;;;;;;7.62;3.00;;;18.70;70.10;;;;;;2302418;55;20962;-72
2022/10/30 00:20:10;;;;;;;5.57;2.90;;;18.70;70.20;;;;;;2305809;56;21600;-68
2022/10/30 00:22:36;;;;;;;5.60;3.00;;;18.70;70.30;;;;;;2546210;54;21364;-68
2022/10/30 00:25:03;;;;;;;6.00;2.53;;;18.70;70.40;;;;;;2535096;54;21183;-70
2022/10/30 00:27:29;;;;;;;5.43;2.67;;;18.60;70.30;;;;;;2284858;55;20990;-68
2022/10/30 00:29:55;;;;;;;8.02;2.92;;;18.60;70.50;;;;;;2305386;55;20969;-70
2022/10/30 00:32:22;;;;;;;6.80;2.87;;;18.60;70.60;;;;;;2310703;55;20953;-68
2022/10/30 00:34:48;;;;;;;7.12;2.37;;;18.60;70.60;;;;;;2547922;54;20989;-68
2022/10/30 00:37:15;;;;;;;5.03;2.47;;;18.60;70.60;;;;;;2310177;55;20982;-68
2022/10/30 00:39:41;;;;;;;6.30;3.05;;;18.50;70.50;;;;;;2547513;54;21672;-68
2022/10/30 00:42:27;;;;;;;7.93;2.90;;;18.50;70.50;;;;;;2308305;55;21581;-73
2022/10/30 00:44:53;;;;;;;5.65;2.50;;;18.50;70.00;;;;;;2468831;54;20991;-72
2022/10/30 00:47:54;;;;;;;5.25;2.40;;;18.50;70.50;;;;;;2284764;55;21235;-68
2022/10/30 00:50:26;;;;;;;6.30;2.58;;;18.40;70.30;;;;;;2294512;54;20978;-68
2022/10/30 00:53:13;;;;;;;4.87;2.22;;;18.50;70.40;;;;;;2521985;54;20918;-70
2022/10/30 00:55:48;;;;;;;5.07;2.45;;;18.40;69.80;;;;;;2287686;55;20935;-71
2022/10/30 00:58:16;;;;;;;6.53;2.17;;;18.40;70.10;;;;;;2286923;55;20919;-70
2022/10/30 01:00:44;;;;;;;4.53;2.15;;;18.40;70.30;;;;;;2292044;54;21014;-69
2022/10/30 01:03:10;;;;;;;6.53;2.28;;;18.30;70.20;;;;;;2283579;55;21445;-70
2022/10/30 01:05:36;;;;;;;7.15;2.40;;;18.20;70.00;;;;;;2521487;54;20937;-70
2022/10/30 01:08:03;;;;;;;7.10;2.90;;;18.20;70.00;;;;;;2287405;55;20974;-68
2022/10/30 01:10:30;;;;;;;5.80;2.65;;;18.20;70.00;;;;;;2287826;55;21473;-68
2022/10/30 01:12:56;;;;;;;4.93;2.37;;;18.20;70.20;;;;;;2286301;58;21587;-68
2022/10/30 01:15:28;;;;;;;5.57;2.30;;;18.10;70.10;;;;;;2284651;58;21421;-68
2022/10/30 01:18:12;;;;;;;4.45;2.40;;;18.10;70.00;;;;;;2287431;55;20951;-68
2022/10/30 01:23:19;;;;;;;6.18;2.17;;;18.10;69.70;;;;;;2483563;54;20965;-67
2022/10/30 01:26:13;;;;;;;3.80;1.60;;;18.00;69.10;;;;;;2289541;55;20962;-68
2022/10/30 01:29:22;;;;;;;5.57;1.83;;;17.90;69.40;;;;;;2517532;54;21493;-67
2022/10/30 01:35:59;;;;;;;4.70;1.80;;;17.90;69.20;;;;;;2289243;55;21478;-68
2022/10/30 01:38:28;;;;;;;3.92;1.33;;;17.80;69.10;;;;;;2521805;54;21003;-68
2022/10/30 01:40:55;;;;;;;5.43;1.42;;;17.70;69.60;;;;;;2486211;54;2298122;-68
2022/10/30 01:43:21;;;;;;;6.65;1.80;;;17.70;69.80;;;;;;2525520;54;21271;-68
2022/10/30 01:47:30;;;;;;;4.12;2.12;;;17.60;69.80;;;;;;2299911;55;20997;-68
2022/10/30 01:50:13;;;;;;;5.70;2.10;;;17.60;69.30;;;;;;2521431;54;20979;-68
2022/10/30 01:52:58;;;;;;;5.32;2.10;;;17.50;69.70;;;;;;2464157;54;20998;-68
2022/10/30 01:55:48;;;;;;;6.37;2.15;;;17.40;69.80;;;;;;2285225;55;21342;-68
2022/10/30 01:59:16;;;;;;;4.80;2.00;;;17.40;69.20;;;;;;2288467;55;20935;-67
2022/10/30 02:01:43;;;;;;;6.57;1.67;;;17.40;69.10;;;;;;2521793;54;21010;-68
2022/10/30 02:04:10;;;;;;;5.60;2.15;;;17.30;69.90;;;;;;2521178;54;21423;-67
2022/10/30 02:06:39;;;;;;;5.57;2.10;;;17.30;69.90;;;;;;2287819;55;21293;-68
2022/10/30 02:09:06;;;;;;;5.85;1.83;;;17.20;70.50;;;;;;2287543;55;21496;-68
2022/10/30 02:11:32;;;;;;;4.78;2.00;;;17.20;69.90;;;;;;2521447;54;20906;-68
2022/10/30 02:13:58;;;;;;;4.18;1.60;;;17.10;69.90;;;;;;2287912;55;20926;-68
2022/10/30 02:16:25;;;;;;;4.40;1.62;;;17.10;69.80;;;;;;2437075;54;20957;-67
2022/10/30 02:18:51;;;;;;;4.20;1.70;;;17.10;69.80;;;;;;2526693;54;21391;-68
2022/10/30 02:21:17;;;;;;;4.97;1.92;;;17.00;69.80;;;;;;2289724;54;20915;-68
2022/10/30 02:23:44;;;;;;;3.92;1.73;;;17.00;69.80;;;;;;2287315;55;21474;-68
2022/10/30 02:26:13;;;;;;;5.28;1.62;;;17.00;69.80;;;;;;2543390;54;21331;-67
2022/10/30 02:28:40;;;;;;;4.43;1.80;;;16.90;69.70;;;;;;2287188;55;20966;-67
2022/10/30 02:31:06;;;;;;;5.80;1.90;;;16.90;69.80;;;;;;2543318;54;20946;-68
2022/10/30 02:33:33;;;;;;;5.05;1.85;;;16.90;69.90;;;;;;2286666;55;21006;-67
2022/10/30 02:35:59;;;;;;;3.90;1.73;;;16.90;70.00;;;;;;2452970;54;20950;-67
2022/10/30 02:38:25;;;;;;;3.28;1.50;;;16.90;70.10;;;;;;2287384;55;20911;-67
2022/10/30 02:40:52;;;;;;;4.80;1.65;;;16.80;70.00;;;;;;2473462;54;20931;-68
2022/10/30 02:43:18;;;;;;;5.93;1.60;;;16.80;70.00;;;;;;2287150;55;21450;-68
2022/10/30 02:45:50;;;;;;;4.12;1.33;;;16.80;70.00;;;;;;2492239;54;20955;-68
2022/10/30 02:48:17;;;;;;;4.03;1.55;;;16.70;69.60;;;;;;2287460;55;20962;-67
2022/10/30 02:50:43;;;;;;;4.20;1.70;;;16.70;69.80;;;;;;2286607;55;20942;-68
2022/10/30 02:53:10;;;;;;;4.90;1.60;;;16.70;69.80;;;;;;2287658;55;21344;-70
2022/10/30 02:55:36;;;;;;;6.18;1.80;;;16.70;70.00;;;;;;2317116;54;21245;-67
2022/10/30 02:58:02;;;;;;;4.68;1.80;;;16.60;69.90;;;;;;2287207;55;20934;-68
2022/10/30 03:00:28;;;;;;;4.65;1.58;;;16.60;69.90;;;;;;2287342;55;21400;-68
2022/10/30 03:02:55;;;;;;;5.12;2.47;;;16.60;69.90;;;;;;2282341;54;21579;-67
2022/10/30 03:05:22;;;;;;;4.68;1.75;;;16.50;69.90;;;;;;2283073;56;21504;-68
2022/10/30 03:07:50;;;;;;;4.00;1.67;;;16.50;70.00;;;;;;2308205;55;21033;-68
2022/10/30 03:10:17;;;;;;;4.55;1.87;;;16.50;70.00;;;;;;2352839;53;20957;-68
2022/10/30 03:12:44;;;;;;;4.30;1.90;;;16.50;70.00;;;;;;2548212;54;21014;-68
2022/10/30 03:15:10;;;;;;;3.95;1.80;;;16.40;69.80;;;;;;2548321;54;20973;-68
2022/10/30 03:17:37;;;;;;;7.62;1.40;;;16.40;69.90;;;;;;2308382;55;21453;-68
2022/10/30 03:20:04;;;;;;;4.20;1.85;;;16.40;70.10;;;;;;2547834;54;20922;-70
2022/10/30 03:22:31;;;;;;;5.78;1.95;;;16.40;70.10;;;;;;2308986;55;20984;-66
2022/10/30 03:24:57;;;;;;;6.20;1.75;;;16.40;70.10;;;;;;2548329;54;20937;-70
2022/10/30 03:27:24;;;;;;;3.62;1.60;;;16.40;70.20;;;;;;2309484;55;20944;-68
2022/10/30 03:29:50;;;;;;;2.70;1.30;;;16.20;70.10;;;;;;2548700;54;21017;-71
2022/10/30 03:32:17;;;;;;;6.15;1.70;;;16.30;70.20;;;;;;2309580;55;20941;-68
2022/10/30 03:34:43;;;;;;;3.87;1.75;;;16.30;70.20;;;;;;2315052;54;20957;-71
2022/10/30 03:37:10;;;;;;;4.72;1.40;;;16.30;70.20;;;;;;2546207;54;21807;-68
2022/10/30 03:39:45;;;;;;;3.72;1.65;;;16.30;70.20;;;;;;2466523;55;21033;-70
2022/10/30 03:42:12;;;;;;;4.75;1.77;;;16.30;69.80;;;;;;2309273;56;21005;-74
2022/10/30 03:44:38;;;;;;;3.65;1.42;;;16.20;70.00;;;;;;2308957;55;21240;-69
2022/10/30 03:47:04;;;;;;;3.90;1.50;;;16.20;70.10;;;;;;2534584;54;21481;-70
2022/10/30 03:49:31;;;;;;;2.55;1.12;;;16.20;70.20;;;;;;2488537;54;20985;-73
2022/10/30 03:51:57;;;;;;;3.60;1.30;;;16.20;70.20;;;;;;2309216;56;20913;-72
2022/10/30 03:54:24;;;;;;;3.55;1.15;;;16.20;70.20;;;;;;2547967;54;20894;-70
2022/10/30 03:56:50;;;;;;;2.80;1.00;;;16.20;70.20;;;;;;2309198;55;21450;-66
2022/10/30 03:59:17;;;;;;;3.70;1.40;;;16.10;70.20;;;;;;2548112;54;21026;-69
2022/10/30 04:01:43;;;;;;;3.22;1.10;;;16.20;70.40;;;;;;2308758;56;20969;-68
2022/10/30 04:04:10;;;;;;;5.40;1.23;;;16.10;70.40;;;;;;2308941;55;20949;-71
2022/10/30 04:06:36;;;;;;;3.28;1.12;;;16.10;70.40;;;;;;2289604;55;20965;-67
2022/10/30 04:09:03;;;;;;;5.50;1.90;;;16.10;70.30;;;;;;2308932;55;20945;-69
2022/10/30 04:11:29;;;;;;;3.70;1.80;;;16.10;70.40;;;;;;2308319;55;20933;-70
2022/10/30 04:13:56;;;;;;;4.60;2.20;;;16.10;70.40;;;;;;2308966;56;21108;-70
2022/10/30 04:16:23;;;;;;;3.70;1.62;;;16.10;70.40;;;;;;2309085;55;21001;-66
2022/10/30 04:18:49;;;;;;;4.70;1.80;;;16.00;70.30;;;;;;2547727;54;21600;-73
2022/10/30 04:21:15;;;;;;;4.60;1.80;;;16.10;70.40;;;;;;2381889;54;21074;-68
2022/10/30 04:23:42;;;;;;;5.20;1.83;;;16.10;70.40;;;;;;2548183;54;21321;-69
2022/10/30 04:26:08;;;;;;;7.45;1.90;;;16.00;70.30;;;;;;2308167;55;20946;-71
2022/10/30 04:28:35;;;;;;;4.45;1.80;;;16.00;70.20;;;;;;2547988;54;21013;-68
2022/10/30 04:31:01;;;;;;;5.60;2.17;;;16.00;70.30;;;;;;2309933;56;21008;-75
2022/10/30 04:33:28;;;;;;;4.37;2.05;;;16.00;70.40;;;;;;2545961;54;21001;-71
2022/10/30 04:35:55;;;;;;;4.78;1.70;;;16.00;70.50;;;;;;2308378;56;21498;-68
2022/10/30 04:38:21;;;;;;;5.07;1.40;;;16.00;70.50;;;;;;2522034;54;21394;-67
2022/10/30 04:40:47;;;;;;;4.40;1.45;;;15.90;70.30;;;;;;2302965;55;21008;-70
2022/10/30 04:43:13;;;;;;;3.30;1.35;;;15.90;70.20;;;;;;2535258;54;20954;-71
2022/10/30 04:45:40;;;;;;;3.53;1.42;;;15.90;70.30;;;;;;2291821;55;21016;-68
2022/10/30 04:48:14;;;;;;;5.95;1.90;;;15.90;70.20;;;;;;2414871;55;20979;-69
2022/10/30 04:50:41;;;;;;;4.30;1.90;;;15.90;70.00;;;;;;2284467;56;20995;-71
2022/10/30 04:53:44;;;;;;;3.67;1.80;;;15.90;70.30;;;;;;2516087;54;21001;-72
2022/10/30 04:56:10;;;;;;;3.78;1.60;;;15.80;70.40;;;;;;2308220;55;21339;-72
2022/10/30 04:58:37;;;;;;;4.87;1.40;;;15.90;70.50;;;;;;2417069;54;21549;-69
2022/10/30 05:01:04;;;;;;;5.15;1.70;;;15.80;70.50;;;;;;2308931;55;21423;-72
2022/10/30 05:03:30;;;;;;;3.22;1.42;;;15.80;70.40;;;;;;2289671;55;20974;-68
2022/10/30 05:06:00;;;;;;;4.40;1.55;;;15.80;70.40;;;;;;2308818;56;20963;-70
2022/10/30 05:08:27;;;;;;;3.85;1.50;;;15.80;70.40;;;;;;2308834;55;20949;-71
2022/10/30 05:10:53;;;;;;;3.25;1.40;;;15.80;70.40;;;;;;2308698;56;20944;-69
2022/10/30 05:13:20;;;;;;;4.45;1.85;;;15.80;70.30;;;;;;2547998;54;21404;-68
2022/10/30 05:15:46;;;;;;;5.00;1.65;;;15.70;70.20;;;;;;2509070;54;21234;-70
2022/10/30 05:18:12;;;;;;;6.00;1.80;;;15.80;70.30;;;;;;2309126;56;20933;-71
2022/10/30 05:20:39;;;;;;;6.18;1.62;;;15.70;70.30;;;;;;2367925;54;20989;-69
2022/10/30 05:23:05;;;;;;;3.25;1.50;;;15.70;70.60;;;;;;2309826;55;20966;-72
2022/10/30 05:25:31;;;;;;;4.97;1.90;;;15.70;70.60;;;;;;2481010;54;21418;-71
2022/10/30 05:28:02;;;;;;;5.32;2.10;;;15.70;70.50;;;;;;2538493;54;21427;-71
2022/10/30 05:30:29;;;;;;;6.70;2.05;;;15.70;70.50;;;;;;2294049;55;21406;-70
2022/10/30 05:33:03;;;;;;;5.03;1.80;;;15.70;70.60;;;;;;2308811;55;20953;-73
2022/10/30 05:35:29;;;;;;;6.62;2.00;;;15.70;70.60;;;;;;2533268;54;20940;-69
2022/10/30 05:37:55;;;;;;;4.60;1.70;;;15.70;70.60;;;;;;2308898;55;20990;-71
2022/10/30 05:40:21;;;;;;;3.92;1.85;;;15.60;70.40;;;;;;2308949;55;21367;-69
2022/10/30 05:42:48;;;;;;;4.82;2.05;;;15.60;70.40;;;;;;2308435;56;21386;-69
2022/10/30 05:45:14;;;;;;;4.45;1.77;;;15.60;70.60;;;;;;2294956;55;20957;-69
2022/10/30 05:47:41;;;;;;;6.03;1.90;;;15.60;70.40;;;;;;2299930;55;20961;-72
2022/10/30 05:50:08;;;;;;;6.32;1.75;;;15.60;70.50;;;;;;2308934;56;20941;-72
2022/10/30 05:52:34;;;;;;;6.25;1.87;;;15.60;70.50;;;;;;2308644;56;20988;-72
2022/10/30 05:55:01;;;;;;;6.25;2.08;;;15.60;70.50;;;;;;2308985;55;20949;-69
2022/10/30 05:57:28;;;;;;;5.40;1.77;;;15.60;70.50;;;;;;2308603;56;20929;-73
2022/10/30 05:59:54;;;;;;;6.47;1.87;;;15.60;70.50;;;;;;2308880;56;20953;-73
2022/10/30 06:02:21;;;;;;;4.70;1.92;;;15.50;70.40;;;;;;2380835;54;20982;-68
2022/10/30 06:04:47;;;;;;;5.35;1.73;;;15.60;70.50;;;;;;2304577;55;21341;-74
2022/10/30 06:07:14;;;;;;;5.18;1.92;;;15.50;70.50;;;;;;2308566;55;21211;-68
2022/10/30 06:09:40;;;;;;;4.12;1.83;;;15.50;70.50;;;;;;2547687;54;20925;-74
2022/10/30 06:12:06;;;;;;;4.82;1.83;;;15.50;70.50;;;;;;2308591;56;20997;-70
2022/10/30 06:14:33;;;;;;;4.82;1.70;;;15.50;70.50;;;;;;2548063;54;20929;-72
2022/10/30 06:16:59;;;;;;;4.12;1.83;;;15.50;70.50;;;;;;2309505;56;21395;-73
2022/10/30 06:19:25;;;;;;;3.17;1.40;;;15.50;70.50;;;;;;2290744;55;21443;-73
2022/10/30 06:21:53;;;;;;;4.87;1.90;;;15.50;70.50;;;;;;2305982;55;21402;-72
2022/10/30 06:24:19;;;;;;;5.25;2.00;;;15.50;70.40;;;;;;2301356;56;21460;-71
2022/10/30 06:26:46;;;;;;;5.25;2.22;;;15.50;70.40;;;;;;2307829;55;20977;-70
2022/10/30 06:29:12;;;;;;;5.05;2.00;;;15.40;70.40;;;;;;2305177;55;21034;-70
2022/10/30 06:31:38;;;;;;;7.35;2.20;;;15.40;70.40;;;;;;2524923;54;21017;-71
2022/10/30 06:34:05;;;;;;;6.30;2.45;;;15.40;70.50;;;;;;2305208;56;21039;-71
2022/10/30 06:36:31;;;;;;;5.28;1.80;;;15.40;70.50;;;;;;2307177;56;20949;-71
2022/10/30 06:38:58;;;;;;;3.60;1.67;;;15.40;70.50;;;;;;2518653;54;20918;-70
2022/10/30 06:41:24;;;;;;;3.95;1.90;;;15.40;70.50;;;;;;2530829;54;20941;-69
2022/10/30 06:43:51;;;;;;;3.90;1.85;;;15.40;70.50;;;;;;2543452;54;21337;-72
2022/10/30 06:46:18;;;;;;;5.62;1.85;;;15.40;70.70;;;;;;2308768;56;20989;-71
2022/10/30 06:48:44;;;;;;;3.67;1.75;;;15.40;70.60;;;;;;2307884;55;20961;-69
2022/10/30 06:51:11;;;;;;;4.93;1.85;;;15.40;70.60;;;;;;2308680;55;21275;-69
2022/10/30 06:53:38;;;;;;;4.50;1.80;;;15.40;70.60;;;;;;2545629;54;21341;-69
2022/10/30 06:56:04;;;;;;;4.90;1.90;;;15.40;70.60;;;;;;2307226;56;20949;-70
2022/10/30 06:58:31;;;;;;;3.70;1.40;;;15.40;70.60;;;;;;2481724;54;20989;-69
2022/10/30 07:01:00;;;;;;;3.62;1.55;;;15.40;70.70;;;;;;2308439;56;20952;-67
2022/10/30 07:03:26;;;;;;;4.93;1.85;;;15.40;70.60;;;;;;2307156;55;21005;-71
2022/10/30 07:05:52;;;;;;;6.03;2.12;;;15.40;70.70;;;;;;2307797;56;21048;-71
2022/10/30 07:08:18;;;;;;;6.97;4.15;;;15.40;70.80;;;;;;2308718;56;20974;-68
2022/10/30 07:10:45;;;;;;;9.77;4.30;;;15.30;70.80;;;;;;2308221;55;21701;-70
2022/10/30 07:13:11;;;;;;;9.85;7.12;;;15.30;71.00;;;;;;2308392;55;20998;-69
2022/10/30 07:15:38;;;;;;;8.68;6.45;;;15.40;71.20;;;;;;2308440;56;21253;-70
2022/10/30 07:18:04;;;;;;;10.68;6.75;;;15.40;71.30;;;;;;2308538;55;21676;-70
2022/10/30 07:20:32;;;;;;;8.98;6.40;;;15.40;71.30;;;;;;2308766;55;21458;-71
2022/10/30 07:22:59;;;;;;;9.40;5.72;;;15.40;71.30;;;;;;2489149;53;21019;-67
2022/10/30 07:25:25;;;;;;;12.70;5.90;;;15.40;71.30;;;;;;2308242;55;21025;-68
2022/10/30 07:27:52;;;;;;;7.93;4.62;;;15.50;71.50;;;;;;2546767;54;20977;-70
2022/10/30 07:30:20;;;;;;;7.85;4.00;;;15.50;72.20;;;;;;2307335;55;21590;-69
2022/10/30 07:32:54;;;;;;;6.68;3.70;;;15.50;71.60;;;;;;2308894;56;21509;-71
2022/10/30 07:35:21;;;;;;;6.53;4.03;;;15.50;71.60;;;;;;2295505;55;21550;-70
2022/10/30 07:37:47;;;;;;;5.43;3.00;;;15.50;71.60;;;;;;2301968;55;20910;-71
2022/10/30 07:40:14;;;;;;;7.07;3.20;;;15.60;71.70;;;;;;2308867;55;21375;-74
2022/10/30 07:42:40;;;;;;;8.65;3.70;;;15.60;71.80;;;;;;2308835;56;21278;-72
2022/10/30 07:45:08;;;;;;;6.15;3.10;;;15.60;71.80;;;;;;2308593;56;21329;-67
2022/10/30 07:47:41;;;;;;;8.30;3.70;;;15.70;72.00;;;;;;2335519;54;20953;-68
2022/10/30 07:50:08;;;;;;;6.20;3.40;;;15.70;72.00;;;;;;2309180;56;21327;-71
2022/10/30 07:52:34;;;;;;;7.12;3.78;;;15.70;72.10;;;;;;2308444;56;20929;-71
2022/10/30 07:55:01;;;;;;;7.60;2.78;;;15.80;72.20;;;;;;2308056;56;20957;-72
2022/10/30 07:57:30;;;;;;;7.80;3.62;;;15.80;72.30;;;;;;2308119;55;20933;-70
2022/10/30 07:59:56;;;;;;;4.15;2.50;;;15.90;72.30;;;;;;2307779;56;21009;-70
2022/10/30 08:02:23;;;;;;;4.78;2.60;;;15.90;72.40;;;;;;2288908;56;21069;-71
2022/10/30 08:04:50;;;;;;;5.87;2.75;;;16.00;72.50;;;;;;2307224;55;21372;-70
2022/10/30 08:07:18;;;;;;;6.82;2.70;;;16.00;72.50;;;;;;2308786;55;20996;-70
2022/10/30 08:09:45;;;;;;;5.78;2.90;;;16.10;72.60;;;;;;2546894;54;21388;-70
2022/10/30 08:12:11;;;;;;;6.97;2.60;;;16.10;72.60;;;;;;2308227;56;21512;-73
2022/10/30 08:14:38;;;;;;;6.82;2.72;;;16.20;72.80;;;;;;2547284;54;20925;-70
2022/10/30 08:17:06;;;;;;;6.82;2.28;;;16.20;72.80;;;;;;2546141;54;21005;-72
2022/10/30 08:19:33;;;;;;;3.87;1.65;;;16.30;73.00;;;;;;2305856;55;20964;-70
2022/10/30 08:22:01;;;;;;;3.70;1.87;;;16.40;73.00;;;;;;2306879;55;21398;-70
2022/10/30 08:24:27;;;;;;;4.28;1.30;;;16.40;73.10;;;;;;2329731;55;21433;-68
2022/10/30 08:26:53;;;;;;;4.00;1.60;;;16.50;73.20;;;;;;2308109;56;20954;-69
2022/10/30 08:29:19;;;;;;;6.85;2.42;;;16.50;73.20;;;;;;2315474;54;20959;-70
2022/10/30 08:31:49;;;;;;;9.88;3.50;;;16.60;73.30;;;;;;2546754;54;20962;-74
2022/10/30 08:34:15;;;;;;;8.25;3.40;;;16.70;73.30;;;;;;2307324;55;20992;-74
2022/10/30 08:36:42;;;;;;;9.80;3.37;;;16.80;73.50;;;;;;2308133;55;20917;-70
2022/10/30 08:39:10;;;;;;;5.93;2.95;;;16.80;73.50;;;;;;2482413;54;21001;-70
2022/10/30 08:41:36;;;;;;;6.05;2.83;;;16.90;73.60;;;;;;2307954;56;21013;-69
2022/10/30 08:44:02;;;;;;;7.00;2.50;;;17.00;73.60;;;;;;2308076;55;20932;-68
2022/10/30 08:46:29;;;;;;;6.25;2.08;;;17.10;73.80;;;;;;2401614;54;21277;-71
2022/10/30 08:48:55;;;;;;;6.18;2.58;;;17.10;74.50;;;;;;2307620;56;20929;-72
2022/10/30 08:51:22;;;;;;;4.18;2.00;;;17.20;73.80;;;;;;2308454;56;21115;-72
2022/10/30 08:53:49;;;;;;;4.18;1.95;;;17.30;73.80;;;;;;2518848;54;21746;-69
2022/10/30 08:56:16;;;;;;;5.53;1.92;;;17.40;73.80;;;;;;2308029;56;21013;-71
2022/10/30 08:58:42;;;;;;;5.80;2.33;;;17.40;73.80;;;;;;2338589;54;21069;-70
2022/10/30 09:01:09;;;;;;;4.78;1.98;;;17.50;74.00;;;;;;2305601;56;21466;-70
2022/10/30 09:03:37;;;;;;;5.15;1.67;;;17.60;74.10;;;;;;2308218;56;21466;-69
2022/10/30 09:06:04;;;;;;;3.92;1.65;;;17.70;74.10;;;;;;2308484;56;20986;-69
2022/10/30 09:08:30;;;;;;;4.57;2.05;;;17.80;74.20;;;;;;2308752;55;20936;-69
2022/10/30 09:10:57;;;;;;;4.55;2.03;;;17.90;74.90;;;;;;2319207;54;21041;-70
2022/10/30 09:13:24;;;;;;;4.40;1.60;;;18.00;74.30;;;;;;2308428;55;21226;-68
2022/10/30 09:15:50;;;;;;;5.87;1.90;;;18.00;74.40;;;;;;2308275;56;20952;-70
2022/10/30 09:18:17;;;;;;;5.40;1.90;;;18.20;74.70;;;;;;2307805;56;20957;-70
2022/10/30 09:20:43;;;;;;;5.93;2.35;;;18.30;74.90;;;;;;2308021;56;21035;-68
2022/10/30 09:23:09;;;;;;;4.07;1.90;;;18.40;74.90;;;;;;2307841;55;21221;-71
2022/10/30 09:25:35;;;;;;;6.32;2.15;;;18.50;75.00;;;;;;2307473;56;20961;-69
2022/10/30 09:28:02;;;;;;;6.32;2.78;;;18.60;75.00;;;;;;2307333;56;20960;-71
2022/10/30 09:30:28;;;;;;;4.72;2.17;;;18.70;75.00;;;;;;2307765;55;21430;-69
2022/10/30 09:32:56;;;;;;;3.67;2.08;;;18.80;75.00;;;;;;2306823;56;21474;-68
2022/10/30 09:35:22;;;;;;;4.87;2.10;;;18.90;74.80;;;;;;2546934;54;21013;-68
2022/10/30 09:37:48;;;;;;;4.20;1.60;;;19.00;74.90;;;;;;2528448;54;21379;-68
2022/10/30 09:40:34;;;;;;;4.32;1.75;;;19.10;74.90;;;;;;2308280;56;21423;-71
2022/10/30 09:46:07;;;;;;;4.40;1.50;;;19.20;74.00;;;;;;2306154;56;21013;-70
2022/10/30 09:48:42;;;;;;;3.97;1.30;;;19.40;73.70;;;;;;2285614;55;21094;-71
2022/10/30 09:52:58;;;;;;;7.00;1.70;;;19.60;74.30;;;;;;2288622;55;21016;-71
2022/10/30 09:57:08;;;;;;;4.25;1.37;;;19.70;73.30;;;;;;2302509;55;21000;-81
2022/10/30 10:01:27;;;;;;;4.12;1.45;;;19.80;74.50;;;;;;2303177;55;21429;-71
2022/10/30 10:04:46;;;;;;;5.25;1.40;;;20.00;73.10;;;;;;2308409;56;21064;-70
2022/10/30 10:07:29;;;;;;;3.30;1.40;;;20.00;73.90;;;;;;2308168;56;20952;-70
2022/10/30 10:10:02;;;;;;;5.25;2.15;;;20.10;73.60;;;;;;2307120;55;21414;-70
2022/10/30 10:12:40;;;;;;;3.92;1.75;;;20.20;73.90;;;;;;2513436;54;21020;-70
2022/10/30 10:16:41;;;;;;;4.47;1.90;;;20.30;74.00;;;;;;2275615;55;21058;-70
2022/10/30 10:19:29;;;;;;;7.87;2.35;;;20.40;73.00;;;;;;2277782;55;21530;-72
2022/10/30 10:21:57;;;;;;;3.75;2.00;;;20.50;73.40;;;;;;2269346;54;21625;-71
2022/10/30 10:24:33;;;;;;;4.53;1.87;;;20.50;74.10;;;;;;2294292;54;20982;-69
2022/10/30 10:27:22;;;;;;;4.97;2.10;;;20.60;73.80;;;;;;2265251;55;21671;-70
2022/10/30 10:30:22;;;;;;;4.18;1.87;;;20.70;73.70;;;;;;2276881;55;21007;-73
2022/10/30 10:33:15;;;;;;;6.00;2.15;;;20.80;73.00;;;;;;2502064;54;21035;-74
2022/10/30 10:37:27;;;;;;;5.03;1.77;;;20.90;73.70;;;;;;2509168;55;20974;-73
2022/10/30 10:41:32;;;;;;;4.07;1.83;;;21.00;73.60;;;;;;2507784;55;20979;-73
2022/10/30 10:45:21;;;;;;;4.78;1.73;;;21.10;73.10;;;;;;2288846;55;21858;-75
2022/10/30 10:50:35;;;;;;;5.50;1.67;;;21.20;73.50;;;;;;2511551;55;20941;-73
2022/10/30 10:53:19;;;;;;;4.53;2.00;;;21.40;73.40;;;;;;2282273;55;21074;-73
2022/10/30 10:55:48;;;;;;;3.72;1.60;;;21.60;74.30;;;;;;2279936;56;20972;-73
2022/10/30 11:01:50;;;;;;;4.53;1.87;;;21.60;74.40;;;;;;2286538;55;21523;-73
2022/10/30 11:04:38;;;;;;;5.35;1.60;;;21.80;73.40;;;;;;2393827;54;20940;-71
2022/10/30 11:07:20;;;;;;;6.85;1.80;;;21.90;73.60;;;;;;2257434;56;21027;-71
2022/10/30 11:09:52;;;;;;;4.35;2.22;;;22.00;73.40;;;;;;2335133;54;20949;-73
2022/10/30 11:12:21;;;;;;;5.55;2.20;;;22.00;73.70;;;;;;2275496;55;20963;-71
2022/10/30 11:14:47;;;;;;;5.20;2.30;;;22.10;74.00;;;;;;2511071;53;21002;-73
2022/10/30 11:17:21;;;;;;;4.85;2.03;;;22.20;74.10;;;;;;2281208;56;20971;-70
2022/10/30 11:19:50;;;;;;;4.47;2.00;;;22.20;73.60;;;;;;2286315;55;20948;-71
2022/10/30 11:22:37;;;;;;;4.90;2.05;;;22.30;74.00;;;;;;2266098;55;21067;-73
2022/10/30 11:25:21;;;;;;;4.28;1.85;;;22.40;72.90;;;;;;2282786;56;21888;-71
2022/10/30 11:27:54;;;;;;;4.85;2.10;;;22.50;72.80;;;;;;2283562;55;21090;-72
2022/10/30 11:30:32;;;;;;;3.10;1.55;;;22.60;74.00;;;;;;2513320;55;21015;-71
2022/10/30 11:33:01;;;;;;;6.05;2.30;;;22.60;73.30;;;;;;2278796;55;20972;-70
2022/10/30 11:35:27;;;;;;;3.95;1.98;;;22.70;73.30;;;;;;2520430;54;20907;-70
2022/10/30 11:38:17;;;;;;;5.05;2.20;;;22.70;73.00;;;;;;2287099;55;21075;-72
2022/10/30 11:40:46;;;;;;;7.22;2.60;;;22.80;71.30;;;;;;2459707;54;21030;-70
2022/10/30 11:43:12;;;;;;;5.10;1.83;;;22.80;72.40;;;;;;2306143;55;21022;-71
2022/10/30 11:45:41;;;;;;;4.70;1.77;;;22.90;72.80;;;;;;2521044;54;22087;-70
2022/10/30 11:48:28;;;;;;;4.45;1.80;;;22.90;72.50;;;;;;2518328;54;21119;-70
2022/10/30 11:51:01;;;;;;;5.37;1.90;;;23.00;71.30;;;;;;2314392;54;20938;-70
2022/10/30 11:53:35;;;;;;;4.35;2.22;;;23.10;72.10;;;;;;2303342;54;21039;-71
2022/10/30 11:56:01;;;;;;;7.00;1.98;;;23.10;71.90;;;;;;2284723;55;21062;-70
2022/10/30 11:58:37;;;;;;;5.97;1.92;;;23.10;72.10;;;;;;2287403;54;21003;-71
2022/10/30 12:01:55;;;;;;;4.47;1.65;;;23.20;71.40;;;;;;2519942;54;21022;-69
2022/10/30 12:04:23;;;;;;;4.53;1.58;;;23.30;71.50;;;;;;2344309;54;21462;-71
2022/10/30 12:07:28;;;;;;;4.45;1.92;;;23.30;71.90;;;;;;2473816;54;21474;-72
2022/10/30 12:09:56;;;;;;;4.90;1.40;;;23.40;70.40;;;;;;2286601;55;20941;-73
2022/10/30 12:12:27;;;;;;;5.32;1.85;;;23.40;71.80;;;;;;2286983;55;21530;-71
2022/10/30 12:14:54;;;;;;;2.97;1.37;;;23.50;71.70;;;;;;2286723;55;20935;-72
2022/10/30 12:17:20;;;;;;;4.82;2.10;;;23.50;71.70;;;;;;2287714;55;20991;-71
2022/10/30 12:19:51;;;;;;;8.00;2.20;;;23.60;71.80;;;;;;2288149;55;20963;-72
2022/10/30 12:22:31;;;;;;;8.25;2.10;;;23.60;71.40;;;;;;2378517;54;21033;-72
2022/10/30 12:25:14;;;;;;;4.75;2.05;;;23.70;71.10;;;;;;2287162;54;20958;-70
2022/10/30 12:27:41;;;;;;;3.90;1.85;;;23.70;71.30;;;;;;2400791;54;21014;-71
2022/10/30 12:30:16;;;;;;;4.65;1.83;;;23.80;72.10;;;;;;2538257;54;20959;-69
2022/10/30 12:32:58;;;;;;;3.40;1.85;;;23.80;71.10;;;;;;2542251;54;21016;-69
2022/10/30 12:35:48;;;;;;;4.10;1.80;;;23.90;70.90;;;;;;2287001;55;20954;-69
2022/10/30 12:38:21;;;;;;;5.32;1.77;;;23.90;70.00;;;;;;2491628;54;20943;-70
2022/10/30 12:41:42;;;;;;;6.00;2.00;;;24.00;70.80;;;;;;2521299;54;20971;-73
2022/10/30 12:44:35;;;;;;;4.05;1.42;;;24.10;69.70;;;;;;2355083;54;20923;-72
2022/10/30 12:47:31;;;;;;;4.68;1.67;;;24.10;70.50;;;;;;2287018;55;21013;-72
2022/10/30 12:50:00;;;;;;;3.58;1.50;;;24.10;70.80;;;;;;2521773;54;20935;-69
2022/10/30 12:55:23;;;;;;;3.53;1.40;;;24.20;71.30;;;;;;2286900;55;20926;-69
2022/10/30 12:57:59;;;;;;;2.83;1.23;;;24.30;70.50;;;;;;2521389;54;21039;-69
2022/10/30 13:00:25;;;;;;;3.45;1.37;;;24.40;71.80;;;;;;2369583;54;21349;-71
2022/10/30 13:03:36;;;;;;;3.58;1.37;;;24.40;72.10;;;;;;2521531;54;20939;-72
2022/10/30 13:06:09;;;;;;;3.90;1.35;;;24.50;70.50;;;;;;2287289;55;20922;-70
2022/10/30 13:12:08;;;;;;;4.18;1.52;;;24.50;71.20;;;;;;2287270;55;20934;-70
2022/10/30 13:14:40;;;;;;;4.00;1.58;;;24.60;71.30;;;;;;2287407;55;21018;-70
2022/10/30 13:17:12;;;;;;;3.78;1.40;;;24.80;71.20;;;;;;2412425;54;20970;-69
2022/10/30 13:19:40;;;;;;;3.42;1.70;;;24.80;70.70;;;;;;2286805;55;20939;-70
2022/10/30 13:22:31;;;;;;;5.75;2.10;;;24.80;71.40;;;;;;2470057;54;21011;-69
2022/10/30 13:26:51;;;;;;;5.45;1.70;;;24.90;70.00;;;;;;2288777;55;20994;-70
2022/10/30 13:29:29;;;;;;;5.25;1.95;;;25.00;69.80;;;;;;2287425;55;21727;-69
2022/10/30 13:32:25;;;;;;;4.47;2.00;;;25.00;70.60;;;;;;2286463;56;21001;-69
2022/10/30 13:36:24;;;;;;;4.90;2.05;;;25.10;70.00;;;;;;2317287;54;20926;-68
2022/10/30 13:40:15;;;;;;;6.18;2.55;;;25.10;69.70;;;;;;2287525;55;20978;-69
2022/10/30 13:43:24;;;;;;;8.25;2.05;;;25.20;70.00;;;;;;2287371;55;20930;-68